sensor_id;sensor_type;location;lat;lon;timestamp;temperature;humidity
210;DHT22;90;48.810;9.120;2023-10-13T00:00:57;19.50;60.00
210;DHT22;90;48.810;9.120;2023-10-13T00:03:24;19.60;59.50
210;DHT22;90;48.810;9.120;2023-10-13T00:05:57;19.70;58.90
210;DHT22;90;48.810;9.120;2023-10-13T00:08:27;19.70;58.60
210;DHT22;90;48.810;9.120;2023-10-13T00:10:54;19.80;58.10
210;DHT22;90;48.810;9.120;2023-10-13T00:13:26;19.80;57.90
210;DHT22;90;48.810;9.120;2023-10-13T00:15:53;19.80;57.70
210;DHT22;90;48.810;9.120;2023-10-13T00:18:28;19.90;57.70
210;DHT22;90;48.810;9.120;2023-10-13T00:20:58;19.90;57.40
210;DHT22;90;48.810;9.120;2023-10-13T00:23:25;19.90;57.30
210;DHT22;90;48.810;9.120;2023-10-13T00:25:53;19.90;57.00
210;DHT22;90;48.810;9.120;2023-10-13T00:28:28;19.90;56.90
210;DHT22;90;48.810;9.120;2023-10-13T00:31:08;19.80;56.80
210;DHT22;90;48.810;9.120;2023-10-13T00:33:39;19.80;56.70
210;DHT22;90;48.810;9.120;2023-10-13T00:36:07;19.90;56.50
210;DHT22;90;48.810;9.120;2023-10-13T00:38:34;19.90;56.50
210;DHT22;90;48.810;9.120;2023-10-13T00:41:02;19.90;56.50
210;DHT22;90;48.810;9.120;2023-10-13T00:43:44;19.90;56.60
210;DHT22;90;48.810;9.120;2023-10-13T00:46:11;19.90;56.60
210;DHT22;90;48.810;9.120;2023-10-13T00:48:42;19.80;56.50
210;DHT22;90;48.810;9.120;2023-10-13T00:51:17;19.80;56.50
210;DHT22;90;48.810;9.120;2023-10-13T00:53:57;19.80;56.40
210;DHT22;90;48.810;9.120;2023-10-13T00:56:24;19.80;56.40
210;DHT22;90;48.810;9.120;2023-10-13T00:58:53;19.70;56.20
210;DHT22;90;48.810;9.120;2023-10-13T01:01:21;19.80;56.00
210;DHT22;90;48.810;9.120;2023-10-13T01:03:51;19.70;56.00
210;DHT22;90;48.810;9.120;2023-10-13T01:06:21;19.70;56.00
210;DHT22;90;48.810;9.120;2023-10-13T01:08:57;19.70;55.80
210;DHT22;90;48.810;9.120;2023-10-13T01:11:23;19.70;55.80
210;DHT22;90;48.810;9.120;2023-10-13T01:13:50;19.70;55.70
210;DHT22;90;48.810;9.120;2023-10-13T01:16:16;19.70;55.70
210;DHT22;90;48.810;9.120;2023-10-13T01:18:46;19.80;55.60
210;DHT22;90;48.810;9.120;2023-10-13T01:21:15;19.70;55.70
210;DHT22;90;48.810;9.120;2023-10-13T01:23:47;19.70;55.80
210;DHT22;90;48.810;9.120;2023-10-13T01:26:13;19.80;55.70
210;DHT22;90;48.810;9.120;2023-10-13T01:28:50;19.70;55.80
210;DHT22;90;48.810;9.120;2023-10-13T01:31:16;19.70;55.80
210;DHT22;90;48.810;9.120;2023-10-13T01:33:55;19.70;55.90
210;DHT22;90;48.810;9.120;2023-10-13T01:36:24;19.70;56.00
210;DHT22;90;48.810;9.120;2023-10-13T01:38:53;19.70;56.00
210;DHT22;90;48.810;9.120;2023-10-13T01:41:19;19.70;56.00
210;DHT22;90;48.810;9.120;2023-10-13T01:43:46;19.70;56.10
210;DHT22;90;48.810;9.120;2023-10-13T01:46:16;19.70;56.10
210;DHT22;90;48.810;9.120;2023-10-13T01:48:47;19.60;56.30
210;DHT22;90;48.810;9.120;2023-10-13T01:51:13;19.70;56.40
210;DHT22;90;48.810;9.120;2023-10-13T01:53:40;19.60;56.20
210;DHT22;90;48.810;9.120;2023-10-13T01:56:08;19.60;56.50
210;DHT22;90;48.810;9.120;2023-10-13T01:58:40;19.60;56.50
210;DHT22;90;48.810;9.120;2023-10-13T02:01:13;19.60;56.50
210;DHT22;90;48.810;9.120;2023-10-13T02:03:52;19.60;56.60
210;DHT22;90;48.810;9.120;2023-10-13T02:06:26;19.50;56.80
210;DHT22;90;48.810;9.120;2023-10-13T02:08:58;19.50;56.90
210;DHT22;90;48.810;9.120;2023-10-13T02:11:30;19.50;56.90
210;DHT22;90;48.810;9.120;2023-10-13T02:13:57;19.50;56.80
210;DHT22;90;48.810;9.120;2023-10-13T02:16:23;19.50;56.90
210;DHT22;90;48.810;9.120;2023-10-13T02:18:51;19.50;56.70
210;DHT22;90;48.810;9.120;2023-10-13T02:21:17;19.50;56.80
210;DHT22;90;48.810;9.120;2023-10-13T02:23:44;19.50;56.60
210;DHT22;90;48.810;9.120;2023-10-13T02:26:11;19.50;56.70
210;DHT22;90;48.810;9.120;2023-10-13T02:28:41;19.50;56.80
210;DHT22;90;48.810;9.120;2023-10-13T02:31:07;19.50;56.70
210;DHT22;90;48.810;9.120;2023-10-13T02:33:34;19.50;56.60
210;DHT22;90;48.810;9.120;2023-10-13T02:36:01;19.50;56.60
210;DHT22;90;48.810;9.120;2023-10-13T02:38:30;19.50;56.40
210;DHT22;90;48.810;9.120;2023-10-13T02:41:00;19.40;56.50
210;DHT22;90;48.810;9.120;2023-10-13T02:43:33;19.50;56.70
210;DHT22;90;48.810;9.120;2023-10-13T02:46:00;19.50;56.60
210;DHT22;90;48.810;9.120;2023-10-13T02:48:28;19.40;56.60
210;DHT22;90;48.810;9.120;2023-10-13T02:50:58;19.40;56.80
210;DHT22;90;48.810;9.120;2023-10-13T02:53:28;19.40;56.90
210;DHT22;90;48.810;9.120;2023-10-13T02:55:55;19.40;56.90
210;DHT22;90;48.810;9.120;2023-10-13T02:58:23;19.40;56.50
210;DHT22;90;48.810;9.120;2023-10-13T03:01:05;19.40;56.50
210;DHT22;90;48.810;9.120;2023-10-13T03:03:43;19.40;56.50
210;DHT22;90;48.810;9.120;2023-10-13T03:06:09;19.40;56.60
210;DHT22;90;48.810;9.120;2023-10-13T03:08:37;19.40;56.50
210;DHT22;90;48.810;9.120;2023-10-13T03:11:03;19.40;56.40
210;DHT22;90;48.810;9.120;2023-10-13T03:13:31;19.40;56.30
210;DHT22;90;48.810;9.120;2023-10-13T03:15:58;19.40;56.40
210;DHT22;90;48.810;9.120;2023-10-13T03:18:26;19.40;56.30
210;DHT22;90;48.810;9.120;2023-10-13T03:20:59;19.30;56.50
210;DHT22;90;48.810;9.120;2023-10-13T03:23:25;19.40;56.30
210;DHT22;90;48.810;9.120;2023-10-13T03:25:52;19.30;56.40
210;DHT22;90;48.810;9.120;2023-10-13T03:28:21;19.30;56.50
210;DHT22;90;48.810;9.120;2023-10-13T03:30:51;19.30;56.60
210;DHT22;90;48.810;9.120;2023-10-13T03:33:18;19.30;56.60
210;DHT22;90;48.810;9.120;2023-10-13T03:35:53;19.30;56.80
210;DHT22;90;48.810;9.120;2023-10-13T03:38:20;19.30;56.70
210;DHT22;90;48.810;9.120;2023-10-13T03:40:52;19.40;56.40
210;DHT22;90;48.810;9.120;2023-10-13T03:43:35;19.30;56.50
210;DHT22;90;48.810;9.120;2023-10-13T03:46:10;19.30;56.60
210;DHT22;90;48.810;9.120;2023-10-13T03:48:37;19.30;56.60
210;DHT22;90;48.810;9.120;2023-10-13T03:51:18;19.30;56.80
210;DHT22;90;48.810;9.120;2023-10-13T03:53:46;19.30;56.80
210;DHT22;90;48.810;9.120;2023-10-13T03:56:20;19.20;56.80
210;DHT22;90;48.810;9.120;2023-10-13T03:58:54;19.20;56.80
210;DHT22;90;48.810;9.120;2023-10-13T04:01:24;19.20;57.00
210;DHT22;90;48.810;9.120;2023-10-13T04:03:58;19.20;57.00
210;DHT22;90;48.810;9.120;2023-10-13T04:06:31;19.20;57.00
210;DHT22;90;48.810;9.120;2023-10-13T04:09:26;19.20;56.90
210;DHT22;90;48.810;9.120;2023-10-13T04:12:10;19.20;56.90
210;DHT22;90;48.810;9.120;2023-10-13T04:14:47;19.10;57.00
210;DHT22;90;48.810;9.120;2023-10-13T04:17:37;19.10;57.00
210;DHT22;90;48.810;9.120;2023-10-13T04:20:11;19.10;57.00
210;DHT22;90;48.810;9.120;2023-10-13T04:22:54;19.20;56.90
210;DHT22;90;48.810;9.120;2023-10-13T04:25:36;19.10;57.00
210;DHT22;90;48.810;9.120;2023-10-13T04:28:18;19.10;57.00
210;DHT22;90;48.810;9.120;2023-10-13T04:31:00;19.10;57.00
210;DHT22;90;48.810;9.120;2023-10-13T04:33:37;19.10;57.00
210;DHT22;90;48.810;9.120;2023-10-13T04:36:16;19.10;56.90
210;DHT22;90;48.810;9.120;2023-10-13T04:38:50;19.10;56.80
210;DHT22;90;48.810;9.120;2023-10-13T04:41:24;19.10;56.80
210;DHT22;90;48.810;9.120;2023-10-13T04:43:57;19.10;57.00
210;DHT22;90;48.810;9.120;2023-10-13T04:46:30;19.10;56.80
210;DHT22;90;48.810;9.120;2023-10-13T04:49:19;19.10;56.70
210;DHT22;90;48.810;9.120;2023-10-13T04:51:54;19.10;56.80
210;DHT22;90;48.810;9.120;2023-10-13T04:54:31;19.10;56.70
210;DHT22;90;48.810;9.120;2023-10-13T04:57:11;19.10;56.80
210;DHT22;90;48.810;9.120;2023-10-13T04:59:51;19.10;56.80
210;DHT22;90;48.810;9.120;2023-10-13T05:02:35;19.00;56.90
210;DHT22;90;48.810;9.120;2023-10-13T05:05:43;19.10;56.90
210;DHT22;90;48.810;9.120;2023-10-13T05:08:29;19.00;56.80
210;DHT22;90;48.810;9.120;2023-10-13T05:11:15;19.00;56.90
210;DHT22;90;48.810;9.120;2023-10-13T05:13:56;19.10;56.90
210;DHT22;90;48.810;9.120;2023-10-13T05:16:40;19.10;56.80
210;DHT22;90;48.810;9.120;2023-10-13T05:19:24;19.10;56.60
210;DHT22;90;48.810;9.120;2023-10-13T05:22:08;19.10;56.50
210;DHT22;90;48.810;9.120;2023-10-13T05:24:52;19.10;56.50
210;DHT22;90;48.810;9.120;2023-10-13T05:27:42;19.10;56.50
210;DHT22;90;48.810;9.120;2023-10-13T05:30:27;19.10;56.20
210;DHT22;90;48.810;9.120;2023-10-13T05:33:11;19.10;56.20
210;DHT22;90;48.810;9.120;2023-10-13T05:35:55;19.10;56.10
210;DHT22;90;48.810;9.120;2023-10-13T05:38:39;19.10;56.00
210;DHT22;90;48.810;9.120;2023-10-13T05:41:23;19.10;56.10
210;DHT22;90;48.810;9.120;2023-10-13T05:44:09;19.10;56.10
210;DHT22;90;48.810;9.120;2023-10-13T05:46:50;19.20;56.10
210;DHT22;90;48.810;9.120;2023-10-13T05:49:48;19.10;56.10
210;DHT22;90;48.810;9.120;2023-10-13T05:52:30;19.20;56.10
210;DHT22;90;48.810;9.120;2023-10-13T05:55:19;19.20;56.10
210;DHT22;90;48.810;9.120;2023-10-13T05:58:04;19.20;56.20
210;DHT22;90;48.810;9.120;2023-10-13T06:00:50;19.10;56.20
210;DHT22;90;48.810;9.120;2023-10-13T06:03:34;19.10;56.10
210;DHT22;90;48.810;9.120;2023-10-13T06:06:19;19.20;56.00
210;DHT22;90;48.810;9.120;2023-10-13T06:09:04;19.20;56.20
210;DHT22;90;48.810;9.120;2023-10-13T06:11:48;19.20;56.00
210;DHT22;90;48.810;9.120;2023-10-13T06:14:32;19.20;56.40
210;DHT22;90;48.810;9.120;2023-10-13T06:17:19;19.20;56.00
210;DHT22;90;48.810;9.120;2023-10-13T06:20:04;19.20;56.00
210;DHT22;90;48.810;9.120;2023-10-13T06:22:49;19.30;55.70
210;DHT22;90;48.810;9.120;2023-10-13T06:25:50;19.30;55.70
210;DHT22;90;48.810;9.120;2023-10-13T06:28:35;19.40;55.30
210;DHT22;90;48.810;9.120;2023-10-13T06:31:09;19.30;55.30
210;DHT22;90;48.810;9.120;2023-10-13T06:33:48;19.40;55.70
210;DHT22;90;48.810;9.120;2023-10-13T06:36:14;19.40;55.70
210;DHT22;90;48.810;9.120;2023-10-13T06:38:43;19.40;55.40
210;DHT22;90;48.810;9.120;2023-10-13T06:41:10;19.50;55.40
210;DHT22;90;48.810;9.120;2023-10-13T06:43:45;19.50;55.40
210;DHT22;90;48.810;9.120;2023-10-13T06:46:25;19.50;54.80
210;DHT22;90;48.810;9.120;2023-10-13T06:48:55;19.60;54.90
210;DHT22;90;48.810;9.120;2023-10-13T06:51:25;19.60;54.80
210;DHT22;90;48.810;9.120;2023-10-13T06:53:56;19.60;54.60
210;DHT22;90;48.810;9.120;2023-10-13T06:56:23;19.60;54.80
210;DHT22;90;48.810;9.120;2023-10-13T06:58:53;19.70;54.50
210;DHT22;90;48.810;9.120;2023-10-13T07:01:25;19.70;54.80
210;DHT22;90;48.810;9.120;2023-10-13T07:03:52;19.70;54.90
210;DHT22;90;48.810;9.120;2023-10-13T07:06:21;19.80;54.80
210;DHT22;90;48.810;9.120;2023-10-13T07:08:50;19.80;55.10
210;DHT22;90;48.810;9.120;2023-10-13T07:11:19;19.80;55.00
210;DHT22;90;48.810;9.120;2023-10-13T07:13:58;19.90;54.90
210;DHT22;90;48.810;9.120;2023-10-13T07:16:26;19.90;54.60
210;DHT22;90;48.810;9.120;2023-10-13T07:19:00;19.90;54.50
210;DHT22;90;48.810;9.120;2023-10-13T07:21:33;19.90;54.30
210;DHT22;90;48.810;9.120;2023-10-13T07:23:59;19.90;54.00
210;DHT22;90;48.810;9.120;2023-10-13T07:26:36;19.90;54.40
210;DHT22;90;48.810;9.120;2023-10-13T07:29:08;19.90;54.30
210;DHT22;90;48.810;9.120;2023-10-13T07:31:35;20.00;54.20
210;DHT22;90;48.810;9.120;2023-10-13T07:34:03;20.10;54.10
210;DHT22;90;48.810;9.120;2023-10-13T07:36:39;20.10;54.10
210;DHT22;90;48.810;9.120;2023-10-13T07:39:09;20.10;53.90
210;DHT22;90;48.810;9.120;2023-10-13T07:41:47;20.20;53.60
210;DHT22;90;48.810;9.120;2023-10-13T07:44:18;20.20;53.50
210;DHT22;90;48.810;9.120;2023-10-13T07:46:50;20.30;53.30
210;DHT22;90;48.810;9.120;2023-10-13T07:49:27;20.40;53.30
210;DHT22;90;48.810;9.120;2023-10-13T07:51:58;20.40;52.80
210;DHT22;90;48.810;9.120;2023-10-13T07:54:26;20.40;52.60
210;DHT22;90;48.810;9.120;2023-10-13T07:56:53;20.50;53.00
210;DHT22;90;48.810;9.120;2023-10-13T07:59:21;20.60;52.10
210;DHT22;90;48.810;9.120;2023-10-13T08:01:49;20.60;52.20
210;DHT22;90;48.810;9.120;2023-10-13T08:04:37;20.70;52.10
210;DHT22;90;48.810;9.120;2023-10-13T08:07:05;20.70;51.80
210;DHT22;90;48.810;9.120;2023-10-13T08:09:39;20.80;51.10
210;DHT22;90;48.810;9.120;2023-10-13T08:12:08;20.90;51.40
210;DHT22;90;48.810;9.120;2023-10-13T08:14:37;20.90;51.40
210;DHT22;90;48.810;9.120;2023-10-13T08:17:06;21.00;50.30
210;DHT22;90;48.810;9.120;2023-10-13T08:19:38;21.00;50.30
210;DHT22;90;48.810;9.120;2023-10-13T08:22:12;21.10;50.40
210;DHT22;90;48.810;9.120;2023-10-13T08:24:52;21.20;49.80
210;DHT22;90;48.810;9.120;2023-10-13T08:27:36;21.20;49.80
210;DHT22;90;48.810;9.120;2023-10-13T08:30:14;21.20;49.80
210;DHT22;90;48.810;9.120;2023-10-13T08:32:54;21.30;48.80
210;DHT22;90;48.810;9.120;2023-10-13T08:35:22;21.40;49.00
210;DHT22;90;48.810;9.120;2023-10-13T08:38:01;21.40;49.00
210;DHT22;90;48.810;9.120;2023-10-13T08:40:43;21.50;48.90
210;DHT22;90;48.810;9.120;2023-10-13T08:43:32;21.50;49.10
210;DHT22;90;48.810;9.120;2023-10-13T08:46:09;21.60;49.00
210;DHT22;90;48.810;9.120;2023-10-13T08:48:52;21.60;48.40
210;DHT22;90;48.810;9.120;2023-10-13T08:51:33;21.70;48.00
210;DHT22;90;48.810;9.120;2023-10-13T08:54:13;21.80;48.00
210;DHT22;90;48.810;9.120;2023-10-13T08:56:47;22.00;47.40
210;DHT22;90;48.810;9.120;2023-10-13T08:59:21;22.00;47.30
210;DHT22;90;48.810;9.120;2023-10-13T09:01:59;22.20;50.80
210;DHT22;90;48.810;9.120;2023-10-13T09:04:25;22.30;48.10
210;DHT22;90;48.810;9.120;2023-10-13T09:07:02;22.40;49.50
210;DHT22;90;48.810;9.120;2023-10-13T09:09:46;22.50;47.30
210;DHT22;90;48.810;9.120;2023-10-13T09:12:37;22.50;46.90
210;DHT22;90;48.810;9.120;2023-10-13T09:15:07;22.60;46.20
210;DHT22;90;48.810;9.120;2023-10-13T09:17:49;22.60;45.80
210;DHT22;90;48.810;9.120;2023-10-13T09:20:28;22.80;46.60
210;DHT22;90;48.810;9.120;2023-10-13T09:23:09;22.90;46.20
210;DHT22;90;48.810;9.120;2023-10-13T09:25:37;23.00;45.40
210;DHT22;90;48.810;9.120;2023-10-13T09:28:19;23.10;45.80
210;DHT22;90;48.810;9.120;2023-10-13T09:30:48;23.20;44.30
210;DHT22;90;48.810;9.120;2023-10-13T09:33:19;23.30;45.90
210;DHT22;90;48.810;9.120;2023-10-13T09:35:54;23.30;43.70
210;DHT22;90;48.810;9.120;2023-10-13T09:38:20;23.40;43.70
210;DHT22;90;48.810;9.120;2023-10-13T09:40:48;23.40;43.60
210;DHT22;90;48.810;9.120;2023-10-13T09:43:19;23.40;43.50
210;DHT22;90;48.810;9.120;2023-10-13T09:45:47;23.50;43.80
210;DHT22;90;48.810;9.120;2023-10-13T09:48:32;23.60;45.30
210;DHT22;90;48.810;9.120;2023-10-13T09:51:00;23.60;46.30
210;DHT22;90;48.810;9.120;2023-10-13T09:53:27;23.60;46.10
210;DHT22;90;48.810;9.120;2023-10-13T09:56:00;23.60;42.80
210;DHT22;90;48.810;9.120;2023-10-13T09:58:41;23.60;43.10
210;DHT22;90;48.810;9.120;2023-10-13T10:01:14;23.60;43.00
210;DHT22;90;48.810;9.120;2023-10-13T10:03:47;23.80;43.70
210;DHT22;90;48.810;9.120;2023-10-13T10:06:33;23.80;44.50
210;DHT22;90;48.810;9.120;2023-10-13T10:09:05;23.90;42.80
210;DHT22;90;48.810;9.120;2023-10-13T10:12:04;24.00;43.10
210;DHT22;90;48.810;9.120;2023-10-13T10:17:41;24.30;43.00
210;DHT22;90;48.810;9.120;2023-10-13T10:20:08;24.30;41.70
210;DHT22;90;48.810;9.120;2023-10-13T10:22:55;24.30;42.50
210;DHT22;90;48.810;9.120;2023-10-13T10:25:29;24.30;41.80
210;DHT22;90;48.810;9.120;2023-10-13T10:28:03;24.20;42.90
210;DHT22;90;48.810;9.120;2023-10-13T10:30:32;24.30;43.10
210;DHT22;90;48.810;9.120;2023-10-13T10:33:01;24.20;42.40
210;DHT22;90;48.810;9.120;2023-10-13T10:35:34;24.10;42.60
210;DHT22;90;48.810;9.120;2023-10-13T10:38:09;24.10;43.20
210;DHT22;90;48.810;9.120;2023-10-13T10:40:52;24.10;43.30
210;DHT22;90;48.810;9.120;2023-10-13T10:43:25;24.00;43.50
210;DHT22;90;48.810;9.120;2023-10-13T10:45:53;23.90;43.60
210;DHT22;90;48.810;9.120;2023-10-13T10:48:25;23.90;43.40
210;DHT22;90;48.810;9.120;2023-10-13T10:50:58;24.10;42.90
210;DHT22;90;48.810;9.120;2023-10-13T10:53:34;24.20;42.90
210;DHT22;90;48.810;9.120;2023-10-13T10:56:09;24.30;43.70
210;DHT22;90;48.810;9.120;2023-10-13T10:58:47;24.40;43.50
210;DHT22;90;48.810;9.120;2023-10-13T11:01:20;24.50;43.00
210;DHT22;90;48.810;9.120;2023-10-13T11:03:55;24.60;42.30
210;DHT22;90;48.810;9.120;2023-10-13T11:06:24;24.60;41.50
210;DHT22;90;48.810;9.120;2023-10-13T11:09:02;24.60;43.00
210;DHT22;90;48.810;9.120;2023-10-13T11:11:29;24.60;42.50
210;DHT22;90;48.810;9.120;2023-10-13T11:14:02;24.70;41.80
210;DHT22;90;48.810;9.120;2023-10-13T11:16:48;24.80;41.60
210;DHT22;90;48.810;9.120;2023-10-13T11:19:19;24.90;42.30
210;DHT22;90;48.810;9.120;2023-10-13T11:21:54;25.00;41.40
210;DHT22;90;48.810;9.120;2023-10-13T11:24:21;25.20;39.80
210;DHT22;90;48.810;9.120;2023-10-13T11:26:48;25.20;40.70
210;DHT22;90;48.810;9.120;2023-10-13T11:29:17;25.30;40.20
210;DHT22;90;48.810;9.120;2023-10-13T11:31:48;25.40;39.70
210;DHT22;90;48.810;9.120;2023-10-13T11:34:24;25.50;41.00
210;DHT22;90;48.810;9.120;2023-10-13T11:37:05;25.60;41.10
210;DHT22;90;48.810;9.120;2023-10-13T11:39:46;25.60;40.00
210;DHT22;90;48.810;9.120;2023-10-13T11:42:13;25.60;38.70
210;DHT22;90;48.810;9.120;2023-10-13T11:44:44;25.70;38.80
210;DHT22;90;48.810;9.120;2023-10-13T11:47:10;25.60;40.60
210;DHT22;90;48.810;9.120;2023-10-13T11:49:57;25.70;39.00
210;DHT22;90;48.810;9.120;2023-10-13T11:52:25;25.80;39.50
210;DHT22;90;48.810;9.120;2023-10-13T11:54:54;26.10;38.10
210;DHT22;90;48.810;9.120;2023-10-13T11:57:21;26.10;38.10
210;DHT22;90;48.810;9.120;2023-10-13T11:59:50;26.10;38.90
210;DHT22;90;48.810;9.120;2023-10-13T12:02:21;26.30;37.90
210;DHT22;90;48.810;9.120;2023-10-13T12:05:06;26.40;37.50
210;DHT22;90;48.810;9.120;2023-10-13T12:07:38;26.40;37.30
210;DHT22;90;48.810;9.120;2023-10-13T12:10:17;26.50;37.60
210;DHT22;90;48.810;9.120;2023-10-13T12:13:00;26.50;37.50
210;DHT22;90;48.810;9.120;2023-10-13T12:15:33;26.60;37.60
210;DHT22;90;48.810;9.120;2023-10-13T12:18:16;26.70;36.60
210;DHT22;90;48.810;9.120;2023-10-13T12:20:44;26.60;36.70
210;DHT22;90;48.810;9.120;2023-10-13T12:23:12;26.60;37.00
210;DHT22;90;48.810;9.120;2023-10-13T12:25:43;26.70;37.50
210;DHT22;90;48.810;9.120;2023-10-13T12:28:23;26.70;38.20
210;DHT22;90;48.810;9.120;2023-10-13T12:30:53;26.70;37.70
210;DHT22;90;48.810;9.120;2023-10-13T12:33:23;26.80;37.40
210;DHT22;90;48.810;9.120;2023-10-13T12:35:56;26.90;37.00
210;DHT22;90;48.810;9.120;2023-10-13T12:38:40;26.90;36.80
210;DHT22;90;48.810;9.120;2023-10-13T12:41:24;27.00;37.10
210;DHT22;90;48.810;9.120;2023-10-13T12:44:08;27.10;37.40
210;DHT22;90;48.810;9.120;2023-10-13T12:46:55;27.30;37.60
210;DHT22;90;48.810;9.120;2023-10-13T12:49:39;27.40;37.10
210;DHT22;90;48.810;9.120;2023-10-13T12:52:17;27.50;37.00
210;DHT22;90;48.810;9.120;2023-10-13T12:54:45;27.70;37.20
210;DHT22;90;48.810;9.120;2023-10-13T12:57:13;27.80;36.70
210;DHT22;90;48.810;9.120;2023-10-13T12:59:41;27.80;36.10
210;DHT22;90;48.810;9.120;2023-10-13T13:02:09;27.90;35.00
210;DHT22;90;48.810;9.120;2023-10-13T13:04:40;27.80;34.90
210;DHT22;90;48.810;9.120;2023-10-13T13:07:10;27.90;35.10
210;DHT22;90;48.810;9.120;2023-10-13T13:09:39;27.90;35.40
210;DHT22;90;48.810;9.120;2023-10-13T13:12:06;27.90;36.10
210;DHT22;90;48.810;9.120;2023-10-13T13:14:33;28.00;35.00
210;DHT22;90;48.810;9.120;2023-10-13T13:17:00;28.10;35.00
210;DHT22;90;48.810;9.120;2023-10-13T13:19:32;28.10;33.50
210;DHT22;90;48.810;9.120;2023-10-13T13:22:02;28.20;33.80
210;DHT22;90;48.810;9.120;2023-10-13T13:24:29;28.30;32.70
210;DHT22;90;48.810;9.120;2023-10-13T13:26:56;28.20;32.70
210;DHT22;90;48.810;9.120;2023-10-13T13:29:28;28.30;33.20
210;DHT22;90;48.810;9.120;2023-10-13T13:31:55;28.20;33.20
210;DHT22;90;48.810;9.120;2023-10-13T13:34:22;28.30;32.60
210;DHT22;90;48.810;9.120;2023-10-13T13:36:50;28.30;33.00
210;DHT22;90;48.810;9.120;2023-10-13T13:41:54;28.40;33.30
210;DHT22;90;48.810;9.120;2023-10-13T13:44:23;28.30;33.00
210;DHT22;90;48.810;9.120;2023-10-13T13:46:55;28.30;33.20
210;DHT22;90;48.810;9.120;2023-10-13T13:49:23;28.40;32.80
210;DHT22;90;48.810;9.120;2023-10-13T13:52:06;28.40;33.60
210;DHT22;90;48.810;9.120;2023-10-13T13:54:35;28.40;33.10
210;DHT22;90;48.810;9.120;2023-10-13T13:57:06;28.50;33.00
210;DHT22;90;48.810;9.120;2023-10-13T13:59:33;28.50;32.50
210;DHT22;90;48.810;9.120;2023-10-13T14:02:02;28.60;32.50
210;DHT22;90;48.810;9.120;2023-10-13T14:04:44;28.60;33.10
210;DHT22;90;48.810;9.120;2023-10-13T14:07:13;28.60;32.80
210;DHT22;90;48.810;9.120;2023-10-13T14:09:42;28.50;33.60
210;DHT22;90;48.810;9.120;2023-10-13T14:12:09;28.30;32.30
210;DHT22;90;48.810;9.120;2023-10-13T14:14:53;28.20;32.70
210;DHT22;90;48.810;9.120;2023-10-13T14:17:22;28.30;32.60
210;DHT22;90;48.810;9.120;2023-10-13T14:19:55;28.20;34.00
210;DHT22;90;48.810;9.120;2023-10-13T14:22:23;28.20;33.80
210;DHT22;90;48.810;9.120;2023-10-13T14:24:51;28.20;32.70
210;DHT22;90;48.810;9.120;2023-10-13T14:27:21;28.20;33.40
210;DHT22;90;48.810;9.120;2023-10-13T14:29:50;28.20;33.90
210;DHT22;90;48.810;9.120;2023-10-13T14:32:19;28.20;33.60
210;DHT22;90;48.810;9.120;2023-10-13T14:34:50;28.20;33.50
210;DHT22;90;48.810;9.120;2023-10-13T14:37:20;28.20;33.50
210;DHT22;90;48.810;9.120;2023-10-13T14:39:53;28.30;33.30
210;DHT22;90;48.810;9.120;2023-10-13T14:42:23;28.20;33.50
210;DHT22;90;48.810;9.120;2023-10-13T14:44:50;28.30;32.80
210;DHT22;90;48.810;9.120;2023-10-13T14:47:21;28.10;33.00
210;DHT22;90;48.810;9.120;2023-10-13T14:49:51;28.10;33.40
210;DHT22;90;48.810;9.120;2023-10-13T14:52:20;28.10;32.80
210;DHT22;90;48.810;9.120;2023-10-13T14:54:46;28.10;32.90
210;DHT22;90;48.810;9.120;2023-10-13T14:57:15;28.10;32.70
210;DHT22;90;48.810;9.120;2023-10-13T14:59:42;28.00;32.60
210;DHT22;90;48.810;9.120;2023-10-13T15:02:09;28.00;33.00
210;DHT22;90;48.810;9.120;2023-10-13T15:04:37;27.90;32.40
210;DHT22;90;48.810;9.120;2023-10-13T15:07:03;28.00;33.10
210;DHT22;90;48.810;9.120;2023-10-13T15:09:32;28.00;33.40
210;DHT22;90;48.810;9.120;2023-10-13T15:11:58;28.00;32.40
210;DHT22;90;48.810;9.120;2023-10-13T15:14:29;27.90;32.60
210;DHT22;90;48.810;9.120;2023-10-13T15:16:59;27.90;32.50
210;DHT22;90;48.810;9.120;2023-10-13T15:19:26;27.90;32.80
210;DHT22;90;48.810;9.120;2023-10-13T15:21:55;27.90;32.50
210;DHT22;90;48.810;9.120;2023-10-13T15:24:22;27.70;32.40
210;DHT22;90;48.810;9.120;2023-10-13T15:26:51;27.60;33.30
210;DHT22;90;48.810;9.120;2023-10-13T15:29:28;27.50;32.80
210;DHT22;90;48.810;9.120;2023-10-13T15:32:01;27.30;33.20
210;DHT22;90;48.810;9.120;2023-10-13T15:34:51;27.10;32.60
210;DHT22;90;48.810;9.120;2023-10-13T15:37:17;27.10;32.70
210;DHT22;90;48.810;9.120;2023-10-13T15:42:12;26.80;32.00
210;DHT22;90;48.810;9.120;2023-10-13T15:44:41;26.70;32.20
210;DHT22;90;48.810;9.120;2023-10-13T15:47:08;26.70;31.90
210;DHT22;90;48.810;9.120;2023-10-13T15:49:37;26.60;31.70
210;DHT22;90;48.810;9.120;2023-10-13T15:52:06;26.50;32.10
210;DHT22;90;48.810;9.120;2023-10-13T15:54:37;26.40;32.70
210;DHT22;90;48.810;9.120;2023-10-13T15:57:07;26.30;33.00
210;DHT22;90;48.810;9.120;2023-10-13T15:59:43;26.30;33.00
210;DHT22;90;48.810;9.120;2023-10-13T16:02:11;26.20;32.60
210;DHT22;90;48.810;9.120;2023-10-13T16:04:39;26.20;32.30
210;DHT22;90;48.810;9.120;2023-10-13T16:07:09;26.10;32.70
210;DHT22;90;48.810;9.120;2023-10-13T16:09:37;26.00;32.30
210;DHT22;90;48.810;9.120;2023-10-13T16:12:04;26.00;32.50
210;DHT22;90;48.810;9.120;2023-10-13T16:14:36;25.90;32.30
210;DHT22;90;48.810;9.120;2023-10-13T16:17:04;25.90;32.00
210;DHT22;90;48.810;9.120;2023-10-13T16:22:02;25.70;32.30
210;DHT22;90;48.810;9.120;2023-10-13T16:26:58;25.60;32.30
210;DHT22;90;48.810;9.120;2023-10-13T16:29:25;25.50;32.20
210;DHT22;90;48.810;9.120;2023-10-13T16:34:26;25.40;32.30
210;DHT22;90;48.810;9.120;2023-10-13T16:36:54;25.40;32.50
210;DHT22;90;48.810;9.120;2023-10-13T16:46:45;25.20;33.10
210;DHT22;90;48.810;9.120;2023-10-13T16:49:11;25.00;34.10
210;DHT22;90;48.810;9.120;2023-10-13T16:51:41;24.90;35.10
210;DHT22;90;48.810;9.120;2023-10-13T16:54:07;24.70;35.90
210;DHT22;90;48.810;9.120;2023-10-13T16:56:35;24.60;36.40
210;DHT22;90;48.810;9.120;2023-10-13T16:59:04;24.60;34.90
210;DHT22;90;48.810;9.120;2023-10-13T17:01:32;24.60;34.90
210;DHT22;90;48.810;9.120;2023-10-13T17:06:26;24.50;34.90
210;DHT22;90;48.810;9.120;2023-10-13T17:08:55;24.50;34.90
210;DHT22;90;48.810;9.120;2023-10-13T17:13:49;24.40;35.20
210;DHT22;90;48.810;9.120;2023-10-13T17:16:17;24.40;35.30
210;DHT22;90;48.810;9.120;2023-10-13T17:18:45;24.30;35.50
210;DHT22;90;48.810;9.120;2023-10-13T17:21:16;24.30;35.50
210;DHT22;90;48.810;9.120;2023-10-13T17:23:44;24.30;35.70
210;DHT22;90;48.810;9.120;2023-10-13T17:26:16;24.30;35.80
210;DHT22;90;48.810;9.120;2023-10-13T17:28:43;24.20;36.10
210;DHT22;90;48.810;9.120;2023-10-13T17:31:10;24.20;36.10
210;DHT22;90;48.810;9.120;2023-10-13T17:33:38;24.10;36.30
210;DHT22;90;48.810;9.120;2023-10-13T17:36:07;24.20;36.50
210;DHT22;90;48.810;9.120;2023-10-13T17:38:34;24.10;36.80
210;DHT22;90;48.810;9.120;2023-10-13T17:41:01;24.10;37.00
210;DHT22;90;48.810;9.120;2023-10-13T17:43:31;24.00;37.40
210;DHT22;90;48.810;9.120;2023-10-13T17:46:04;24.00;37.60
210;DHT22;90;48.810;9.120;2023-10-13T17:48:31;24.00;38.00
210;DHT22;90;48.810;9.120;2023-10-13T17:50:58;24.00;38.20
210;DHT22;90;48.810;9.120;2023-10-13T17:56:02;24.00;38.80
210;DHT22;90;48.810;9.120;2023-10-13T17:58:32;24.00;39.30
210;DHT22;90;48.810;9.120;2023-10-13T18:01:04;23.90;39.90